Bookmark and Share
Track history (hours):
 

Nyk Orpheus

Last reported at 2014-Apr-09 05:33 UTC. Time now 2014-Apr-20 11:49 UTC.
Position N 01°14' E 103°27'.
Warning: this ship's position is 11 days out of date.

Length 336 m; draft 14.3 m.

Type: Other ship. MMSI: 432657000.

NotesDate/timePositionNaut miles runAvg speedWind from/ knotsBaromVisibWave heightAir tempDewpointWater temp
2014-Apr-09 05:33N 01°14' E 103°27'1515.3
2014-Apr-09 04:33N 01°09' E 103°42'1010.4
2014-Apr-09 03:33N 01°12' E 103°52'3 3.3
2014-Apr-09 02:32N 01°15' E 103°51'1 0.1
2014-Apr-08 14:26N 01°16' E 103°50'0 0.0
2014-Apr-08 13:26N 01°16' E 103°50'0 0.0
2014-Apr-08 12:32N 01°16' E 103°50'0 0.0
2014-Apr-08 11:26N 01°16' E 103°50'0 0.0
2014-Apr-08 10:29N 01°16' E 103°50'0 0.0
2014-Apr-08 09:29N 01°16' E 103°50'0 0.0
2014-Apr-08 04:20N 01°16' E 103°50'0 0.0
2014-Apr-08 03:23N 01°16' E 103°50'0 0.0
2014-Apr-08 02:20N 01°16' E 103°50'0 0.0
2014-Apr-08 01:23N 01°16' E 103°50'0 0.0
2014-Apr-07 17:14N 01°16' E 103°50'1 1.6
2014-Apr-07 16:32N 01°15' E 103°51'3 3.2
2014-Apr-07 15:33N 01°14' E 103°54'2 1.9
2014-Apr-07 14:33N 01°14' E 103°56'  
2014-Apr-04 10:33N 22°19' E 114°06'2 0.7
2014-Apr-04 08:19N 22°20' E 114°08'0 0.1
2014-Apr-04 07:26N 22°20' E 114°08'0 0.0
2014-Apr-03 22:07N 22°20' E 114°08'0 0.0
2014-Apr-03 21:31N 22°20' E 114°08'0 0.0
2014-Apr-03 20:19N 22°20' E 114°08'0 0.0
2014-Apr-03 19:13N 22°20' E 114°08'0 0.0
2014-Apr-03 18:13N 22°20' E 114°08'0 0.0
2014-Apr-03 17:19N 22°20' E 114°08'0 0.0
2014-Apr-03 09:31N 22°20' E 114°08'4 3.7
2014-Apr-03 08:19N 22°15' E 114°07'5 4.9
2014-Apr-03 07:17N 22°12' E 114°11'2 0.7
2014-Apr-03 04:07N 22°10' E 114°09'0 0.7
2014-Apr-03 03:31N 22°10' E 114°09'6 4.8
2014-Apr-03 02:20N 22°15' E 114°07'16 9.2
2014-Apr-03 00:33N 22°25' E 113°53'2 1.8
2014-Apr-02 23:26N 22°27' E 113°54'0 0.0
2014-Apr-02 22:32N 22°27' E 113°54'0 0.0
2014-Apr-02 21:14N 22°27' E 113°54'0 0.0
2014-Apr-02 20:20N 22°27' E 113°54'0 0.0
2014-Apr-02 19:32N 22°27' E 113°54'0 0.0
2014-Apr-02 18:08N 22°27' E 113°54'0 0.0
2014-Apr-02 17:32N 22°27' E 113°54'0 0.0
2014-Apr-02 16:32N 22°27' E 113°54'0 0.0
2014-Apr-02 15:26N 22°27' E 113°54'0 0.0
2014-Apr-02 14:32N 22°27' E 113°54'0 0.1
2014-Apr-02 13:32N 22°27' E 113°54'0 0.1
2014-Apr-02 12:32N 22°27' E 113°54'0 0.0
2014-Apr-02 11:32N 22°27' E 113°54'0 0.0
2014-Apr-02 10:26N 22°27' E 113°54'0 0.0
2014-Apr-02 09:32N 22°27' E 113°54'0 0.0
2014-Apr-02 08:26N 22°27' E 113°54'0 0.0
2014-Apr-02 07:26N 22°27' E 113°54'0 0.0
2014-Apr-02 06:32N 22°27' E 113°54'0 0.0
2014-Apr-02 05:32N 22°27' E 113°54'1 1.3
2014-Apr-02 04:33N 22°26' E 113°53'7 7.4
2014-Apr-02 03:33N 22°21' E 113°59'10 9.5
2014-Apr-02 02:31N 22°15' E 114°07'7 7.5
2014-Apr-02 01:33N 22°10' E 114°13'139 9.7
2014-Apr-01 11:13N 22°43' E 116°39'1113.3
2014-Apr-01 10:23N 22°47' E 116°51'1113.7
2014-Apr-01 09:33N 22°51' E 117°02'5313.2
2014-Apr-01 05:31N 23°23' E 117°48'1313.1
2014-Apr-01 04:33N 23°29' E 118°00'1514.5
2014-Apr-01 03:33N 23°36' E 118°14'4016.5
2014-Apr-01 01:08N 24°03' E 118°46'2816.2
2014-Mar-31 23:23N 24°21' E 119°10'1315.9
2014-Mar-31 22:33N 24°28' E 119°23'30116.6
2014-Mar-31 04:28N 28°37' E 122°30'3216.4
2014-Mar-31 02:32N 29°09' E 122°33'1816.2
2014-Mar-31 01:27N 29°26' E 122°32'1415.8
2014-Mar-31 00:33N 29°40' E 122°29'1111.4
2014-Mar-30 23:33N 29°46' E 122°17'9 9.0
2014-Mar-30 22:33N 29°49' E 122°08'7 7.1
2014-Mar-30 21:33N 29°46' E 122°00'0 0.0
2014-Mar-30 20:15N 29°46' E 122°00'0 0.0
2014-Mar-30 19:33N 29°46' E 122°00'0 0.0
2014-Mar-30 18:33N 29°46' E 122°00'0 0.1
2014-Mar-30 17:33N 29°46' E 122°00'0 0.1
2014-Mar-30 16:33N 29°46' E 122°00'0 0.1
2014-Mar-30 15:33N 29°46' E 122°00'0 0.1
2014-Mar-30 14:33N 29°46' E 122°00'0 0.1
2014-Mar-30 13:33N 29°46' E 122°00'0 0.1
2014-Mar-30 12:33N 29°46' E 122°00'0 0.0
2014-Mar-30 11:33N 29°46' E 122°00'0 0.0
2014-Mar-30 10:33N 29°46' E 122°00'0 0.0
2014-Mar-30 09:33N 29°46' E 122°00'0 0.0
2014-Mar-30 08:27N 29°46' E 122°00'0 0.0
2014-Mar-30 07:27N 29°46' E 122°00'1 1.2
2014-Mar-30 06:33N 29°47' E 122°01'1010.3
2014-Mar-30 05:34N 29°51' E 122°12'  

Dump ship's entire track history

sailing weather and tide predictions

Nyk Orpheus — 7JDN — position and weather